Time;durP1;ratioP1;P1;durP2;ratioP2;P2;SDS_P1;SDS_P2;PMS_P1;PMS_P2;Temp;Humidity;BMP_temperature;BMP_pressure;BME280_temperature;BME280_humidity;BME280_pressure;Samples;Min_cycle;Max_cycle;Signal;HPM_P1;HPM_P2
2023/12/13 00:01:46;;;;;;;26.70;15.27;;;;;;;7.24;100.00;98789.78;5035164;28;20055;-71
2023/12/13 00:04:18;;;;;;;28.55;15.45;;;;;;;7.22;100.00;98782.94;5034772;28;20045;-68
2023/12/13 00:06:46;;;;;;;28.63;15.02;;;;;;;7.26;100.00;98793.19;5037786;28;20046;-68
2023/12/13 00:09:15;;;;;;;24.02;14.60;;;;;;;7.28;100.00;98786.03;5026149;28;20041;-69
2023/12/13 00:11:43;;;;;;;27.65;15.55;;;;;;;7.25;100.00;98788.84;5036597;28;20111;-70
2023/12/13 00:14:12;;;;;;;23.63;13.52;;;;;;;7.19;100.00;98783.97;5019581;28;20049;-71
2023/12/13 00:16:42;;;;;;;24.88;14.57;;;;;;;7.09;100.00;98766.16;5034243;28;20060;-71
2023/12/13 00:19:10;;;;;;;24.02;15.43;;;;;;;7.13;100.00;98776.41;5031192;28;20049;-71
2023/12/13 00:21:38;;;;;;;24.67;14.15;;;;;;;7.17;100.00;98782.34;5026504;28;20056;-71
2023/12/13 00:24:08;;;;;;;23.77;15.20;;;;;;;7.09;100.00;98777.53;5025670;28;20038;-71
2023/12/13 00:26:37;;;;;;;;;;;;;;;7.15;100.00;98781.59;5000952;28;20107;-70
2023/12/13 00:29:06;;;;;;;20.73;12.48;;;;;;;7.08;100.00;98767.13;5027361;28;20020;-70
2023/12/13 00:31:36;;;;;;;20.95;13.25;;;;;;;7.19;100.00;98778.72;5030831;28;20083;-71
2023/12/13 00:34:06;;;;;;;22.30;14.45;;;;;;;7.19;100.00;98773.44;5022271;28;20450;-72
2023/12/13 00:36:34;;;;;;;22.92;14.50;;;;;;;7.19;100.00;98778.72;5002911;28;20084;-71
2023/12/13 00:39:03;;;;;;;22.70;13.80;;;;;;;7.10;100.00;98768.69;5025222;28;20132;-71
2023/12/13 00:41:33;;;;;;;22.73;14.55;;;;;;;7.04;100.00;98775.19;5025373;28;20041;-73
2023/12/13 00:44:03;;;;;;;25.60;14.20;;;;;;;6.99;100.00;98771.13;5026855;28;20037;-69
2023/12/13 00:46:31;;;;;;;26.42;15.32;;;;;;;7.04;100.00;98780.44;5022741;28;20048;-70
2023/12/13 00:48:59;;;;;;;26.83;14.48;;;;;;;7.06;100.00;98780.38;5023249;28;20092;-69
2023/12/13 00:51:29;;;;;;;25.83;14.60;;;;;;;7.04;100.00;98779.59;5026415;28;20037;-72
2023/12/13 00:53:57;;;;;;;23.27;13.45;;;;;;;7.03;100.00;98776.13;5027267;28;20180;-71
2023/12/13 00:56:31;;;;;;;20.70;13.15;;;;;;;7.07;100.00;98776.81;5031421;28;20052;-70
2023/12/13 00:58:59;;;;;;;21.38;13.95;;;;;;;7.13;100.00;98767.69;5009783;28;20111;-69
2023/12/13 01:01:30;;;;;;;19.58;13.55;;;;;;;7.18;100.00;98766.47;5024584;28;20061;-72
2023/12/13 01:03:58;;;;;;;18.98;13.15;;;;;;;7.19;100.00;98773.44;5028035;28;20045;-72
2023/12/13 01:06:27;;;;;;;23.50;13.93;;;;;;;7.15;100.00;98765.81;5020482;28;20049;-70
2023/12/13 01:08:56;;;;;;;25.05;13.35;;;;;;;7.10;100.00;98773.97;5023021;28;20060;-71
2023/12/13 01:11:24;;;;;;;23.48;14.20;;;;;;;7.08;100.00;98767.13;5028892;28;20128;-71
2023/12/13 01:13:54;;;;;;;25.77;14.30;;;;;;;7.07;100.00;98763.63;5023908;28;20145;-69
2023/12/13 01:16:23;;;;;;;24.58;13.18;;;;;;;7.11;100.00;98766.91;5015302;28;20057;-70
2023/12/13 01:18:52;;;;;;;21.63;12.35;;;;;;;7.16;100.00;98756.97;5027666;28;20033;-70
2023/12/13 01:21:23;;;;;;;23.25;13.75;;;;;;;7.24;100.00;98760.84;5028992;28;20597;-70
2023/12/13 01:23:51;;;;;;;22.70;12.75;;;;;;;7.27;100.00;98755.38;5033270;28;20037;-70
2023/12/13 01:26:23;;;;;;;21.95;12.48;;;;;;;7.24;100.00;98762.66;4986918;28;20552;-70
2023/12/13 01:28:52;;;;;;;23.13;13.43;;;;;;;7.17;100.00;98772.69;5029070;28;20033;-71
2023/12/13 01:31:21;;;;;;;22.30;13.52;;;;;;;7.10;100.00;98768.69;5033803;28;20045;-70
2023/12/13 01:33:52;;;;;;;22.55;13.75;;;;;;;7.11;100.00;98769.53;5031337;28;20077;-69
2023/12/13 01:36:20;;;;;;;27.67;15.75;;;;;;;7.18;100.00;98789.31;5020696;28;20051;-70
2023/12/13 01:38:50;;;;;;;26.83;15.35;;;;;;;7.15;100.00;98779.81;5029220;28;20138;-71
2023/12/13 01:41:19;;;;;;;24.50;13.88;;;;;;;7.20;100.00;98788.31;5016907;28;20060;-70
2023/12/13 01:43:48;;;;;;;27.73;13.93;;;;;;;7.25;100.00;98794.13;5041637;28;20065;-69
2023/12/13 01:46:17;;;;;;;28.75;14.75;;;;;;;7.31;100.00;98792.94;5022365;28;20915;-72
2023/12/13 01:48:50;;;;;;;25.92;14.10;;;;;;;7.40;100.00;98797.63;5033115;28;20049;-71
2023/12/13 01:51:18;;;;;;;25.63;14.70;;;;;;;7.40;100.00;98772.16;5026379;28;20469;-70
2023/12/13 01:53:47;;;;;;;28.48;13.88;;;;;;;7.54;100.00;98784.50;5034630;28;20480;-74
2023/12/13 01:56:16;;;;;;;20.80;11.55;;;;;;;7.64;100.00;98785.66;5031853;28;20048;-72
2023/12/13 01:58:48;;;;;;;18.40;11.85;;;;;;;7.69;100.00;98777.47;5038248;28;20080;-73
2023/12/13 02:01:18;;;;;;;21.08;11.30;;;;;;;7.69;100.00;98773.06;5033853;28;20041;-71
2023/12/13 02:03:46;;;;;;;19.48;11.43;;;;;;;7.69;100.00;98770.41;5043353;28;20048;-72
2023/12/13 02:06:15;;;;;;;16.35;10.80;;;;;;;7.79;100.00;98783.00;5019840;28;22407;-71
2023/12/13 02:08:44;;;;;;;16.25;10.00;;;;;;;7.81;100.00;98776.72;5042340;28;20286;-74
2023/12/13 02:11:13;;;;;;;17.30;10.13;;;;;;;7.82;100.00;98781.03;5018657;28;20068;-72
2023/12/13 02:13:42;;;;;;;22.35;11.23;;;;;;;7.78;100.00;98760.25;5035848;28;20061;-72
2023/12/13 02:16:12;;;;;;;16.60;10.20;;;;;;;7.80;100.00;98763.63;5012910;28;20487;-72
2023/12/13 02:18:41;;;;;;;19.77;11.60;;;;;;;7.87;100.00;98776.31;5036744;28;20055;-72
2023/12/13 02:21:10;;;;;;;18.48;10.63;;;;;;;7.81;100.00;98768.81;5015548;28;20053;-70
2023/12/13 02:23:43;;;;;;;17.83;10.43;;;;;;;7.79;100.00;98769.84;5037536;28;20046;-72
2023/12/13 02:26:15;;;;;;;21.98;10.75;;;;;;;7.72;100.00;98772.00;5031179;28;20062;-71
2023/12/13 02:28:48;;;;;;;20.30;11.07;;;;;;;7.64;100.00;98772.47;5055260;28;20411;-72
2023/12/13 02:31:18;;;;;;;17.73;10.63;;;;;;;7.58;100.00;98772.84;5030835;28;20046;-71
2023/12/13 02:33:49;;;;;;;17.23;10.93;;;;;;;7.54;100.00;98773.13;5057225;28;20034;-70
2023/12/13 02:36:17;;;;;;;16.63;10.20;;;;;;;7.50;100.00;98761.06;5029277;28;20076;-70
2023/12/13 02:38:46;;;;;;;19.73;10.82;;;;;;;7.53;100.00;98764.38;5022637;28;20136;-70
2023/12/13 02:41:14;;;;;;;16.45;10.55;;;;;;;7.45;100.00;98752.59;5036096;28;20467;-71
2023/12/13 02:43:43;;;;;;;21.30;11.30;;;;;;;7.48;100.00;98762.97;5042383;28;20061;-73
2023/12/13 02:46:11;;;;;;;17.02;10.32;;;;;;;7.39;100.00;98765.22;5031846;28;20080;-73
2023/12/13 02:48:38;;;;;;;17.83;10.63;;;;;;;7.32;100.00;98763.88;5038657;28;20576;-73
2023/12/13 02:51:08;;;;;;;19.38;10.88;;;;;;;7.24;100.00;98763.47;5039544;28;20041;-71
2023/12/13 02:53:36;;;;;;;17.65;9.88;;;;;;;7.15;100.00;98764.03;5042599;28;20063;-72
2023/12/13 02:56:09;;;;;;;24.67;11.30;;;;;;;7.13;100.00;98767.69;5029608;28;20270;-71
2023/12/13 02:58:38;;;;;;;20.25;10.70;;;;;;;7.06;100.00;98747.94;5033369;28;20041;-72
2023/12/13 03:01:06;;;;;;;18.02;9.55;;;;;;;7.10;100.00;98763.44;5015288;28;20048;-72
2023/12/13 03:03:34;;;;;;;16.58;9.00;;;;;;;7.07;100.00;98757.53;5043496;28;20119;-72
2023/12/13 03:06:03;;;;;;;19.45;10.35;;;;;;;6.96;100.00;98748.44;5009294;28;20049;-72
2023/12/13 03:08:32;;;;;;;16.88;10.20;;;;;;;7.00;100.00;98757.03;5029699;28;20041;-73
2023/12/13 03:11:01;;;;;;;17.77;10.07;;;;;;;6.97;100.00;98757.19;5031121;28;20111;-72
2023/12/13 03:13:31;;;;;;;23.35;11.43;;;;;;;6.92;100.00;98752.22;5031689;28;20052;-73
2023/12/13 03:16:01;;;;;;;22.25;11.50;;;;;;;6.89;100.00;98755.03;5028319;28;20061;-71
2023/12/13 03:18:29;;;;;;;19.67;11.52;;;;;;;6.89;100.00;98754.19;5010924;28;20048;-71
2023/12/13 03:20:57;;;;;;;21.27;11.68;;;;;;;6.88;100.00;98747.22;5029131;28;20056;-71
2023/12/13 03:23:25;;;;;;;23.92;12.60;;;;;;;6.92;100.00;98746.97;5025474;28;20052;-70
2023/12/13 03:25:53;;;;;;;24.83;12.18;;;;;;;6.96;100.00;98740.56;5029009;28;20052;-71
2023/12/13 03:28:23;;;;;;;23.92;11.93;;;;;;;7.01;100.00;98742.94;5020206;28;20071;-73
2023/12/13 03:30:55;;;;;;;25.98;12.07;;;;;;;7.01;100.00;98732.41;5014910;28;20140;-73
2023/12/13 03:33:23;;;;;;;24.27;12.02;;;;;;;7.04;100.00;98729.59;5028664;28;20057;-70
2023/12/13 03:35:53;;;;;;;21.33;11.13;;;;;;;7.03;100.00;98720.84;5041098;28;20474;-71
2023/12/13 03:38:22;;;;;;;20.55;10.88;;;;;;;7.10;100.00;98721.31;5027387;28;20052;-70
2023/12/13 03:40:50;;;;;;;18.02;10.75;;;;;;;7.16;100.00;98728.88;5029373;28;20498;-71
2023/12/13 03:43:17;;;;;;;18.58;9.98;;;;;;;7.14;100.00;98730.75;5025293;28;20049;-71
2023/12/13 03:45:47;;;;;;;27.27;10.15;;;;;;;7.13;100.00;98728.19;5026814;28;20059;-71
2023/12/13 03:48:17;;;;;;;19.90;9.75;;;;;;;7.07;100.00;98732.06;5023382;28;20045;-71
2023/12/13 03:50:47;;;;;;;21.17;10.20;;;;;;;7.03;100.00;98731.38;5028176;28;20045;-71
2023/12/13 03:53:16;;;;;;;19.15;9.85;;;;;;;7.01;100.00;98735.03;5041760;28;20103;-71
2023/12/13 03:55:44;;;;;;;17.25;9.27;;;;;;;7.06;100.00;98740.03;5027840;28;20045;-69
2023/12/13 03:58:14;;;;;;;19.33;9.93;;;;;;;7.08;100.00;98746.91;5021808;28;20045;-71
2023/12/13 04:00:42;;;;;;;25.10;11.20;;;;;;;7.10;100.00;98741.53;5031190;28;20136;-71
2023/12/13 04:03:12;;;;;;;19.52;9.77;;;;;;;7.11;100.00;98740.59;5029624;28;20080;-71
2023/12/13 04:05:48;;;;;;;;;;;;;;;7.12;100.00;98735.25;5020617;28;20063;-71
2023/12/13 04:08:16;;;;;;;17.67;8.93;;;;;;;7.13;100.00;98731.69;5020914;28;20309;-71
2023/12/13 04:10:45;;;;;;;19.88;9.15;;;;;;;7.15;100.00;98729.81;5028962;28;20049;-70
2023/12/13 04:13:13;;;;;;;22.65;9.77;;;;;;;7.17;100.00;98727.09;5026838;28;20042;-71
2023/12/13 04:15:42;;;;;;;20.63;9.65;;;;;;;7.18;100.00;98726.16;5027749;28;20042;-71
2023/12/13 04:18:13;;;;;;;20.27;8.57;;;;;;;7.20;100.00;98725.13;5023178;28;20366;-70
2023/12/13 04:20:41;;;;;;;19.42;9.15;;;;;;;7.27;100.00;98728.22;5027784;28;20518;-71
2023/12/13 04:23:12;;;;;;;18.20;8.15;;;;;;;7.27;100.00;98729.06;5021844;28;20041;-70
2023/12/13 04:25:40;;;;;;;22.92;9.43;;;;;;;7.22;100.00;98714.50;5034114;28;20076;-70
2023/12/13 04:28:10;;;;;;;16.50;8.50;;;;;;;7.26;100.00;98718.63;5024369;28;20049;-71
2023/12/13 04:30:38;;;;;;;18.33;8.30;;;;;;;7.24;100.00;98713.44;5030287;28;20077;-72
2023/12/13 04:33:10;;;;;;;16.95;8.43;;;;;;;7.31;100.00;98725.31;5039824;28;20449;-69
2023/12/13 04:35:40;;;;;;;19.48;7.68;;;;;;;7.34;100.00;98722.50;5031340;28;20042;-71
2023/12/13 04:38:08;;;;;;;22.10;7.65;;;;;;;7.32;100.00;98719.13;5039810;28;24345;-72
2023/12/13 04:40:38;;;;;;;17.33;8.48;;;;;;;7.32;100.00;98721.75;5026697;28;20153;-71
2023/12/13 04:43:06;;;;;;;14.60;6.68;;;;;;;7.32;100.00;98720.91;5026929;28;20459;-71
2023/12/13 04:45:34;;;;;;;13.90;6.57;;;;;;;7.33;100.00;98715.53;5013963;28;20517;-71
2023/12/13 04:48:04;;;;;;;12.57;7.22;;;;;;;7.37;100.00;98716.22;5019490;28;20059;-71
2023/12/13 04:50:33;;;;;;;16.27;7.18;;;;;;;7.38;100.00;98715.28;5031262;28;20068;-71
2023/12/13 04:53:02;;;;;;;16.02;6.38;;;;;;;7.44;100.00;98716.66;5032020;28;20099;-71
2023/12/13 04:55:30;;;;;;;15.53;6.70;;;;;;;7.44;100.00;98720.16;5039454;28;20072;-71
2023/12/13 04:58:00;;;;;;;13.63;6.13;;;;;;;7.43;100.00;98718.44;5029466;28;20567;-71
2023/12/13 05:00:28;;;;;;;15.27;5.15;;;;;;;7.38;100.00;98715.28;5027693;28;20057;-71
2023/12/13 05:03:07;;;;;;;11.95;5.30;;;;;;;7.37;100.00;98711.78;5035486;28;20049;-70
2023/12/13 05:05:36;;;;;;;18.70;5.75;;;;;;;7.36;100.00;98715.38;5027432;28;20048;-70
2023/12/13 05:08:09;;;;;;;15.07;6.15;;;;;;;7.34;100.00;98711.13;5008000;28;20116;-71
2023/12/13 05:10:40;;;;;;;15.55;5.60;;;;;;;7.35;100.00;98721.56;5043945;28;20060;-71
2023/12/13 05:13:11;;;;;;;13.48;6.07;;;;;;;7.37;100.00;98718.84;4999776;28;20085;-73
2023/12/13 05:15:40;;;;;;;17.17;7.07;;;;;;;7.35;100.00;98718.09;5030029;28;20084;-71
2023/12/13 05:18:09;;;;;;;18.95;6.45;;;;;;;7.29;100.00;98711.38;5025774;28;20497;-71
2023/12/13 05:20:42;;;;;;;13.23;5.88;;;;;;;7.32;100.00;98708.56;5042790;28;20506;-71
2023/12/13 05:23:09;;;;;;;12.27;5.55;;;;;;;7.37;100.00;98709.16;5043028;28;20053;-71
2023/12/13 05:25:38;;;;;;;15.13;5.50;;;;;;;7.40;100.00;98702.84;5025738;28;20044;-71
2023/12/13 05:28:08;;;;;;;9.98;5.45;;;;;;;7.44;100.00;98711.41;5025425;28;20084;-71
2023/12/13 05:30:37;;;;;;;13.23;5.10;;;;;;;7.45;100.00;98705.19;5013885;28;20045;-71
2023/12/13 05:33:05;;;;;;;15.40;5.63;;;;;;;7.52;100.00;98711.78;5033639;28;20136;-70
2023/12/13 05:35:34;;;;;;;13.15;5.15;;;;;;;7.57;100.00;98702.66;5016450;28;20053;-69
2023/12/13 05:38:03;;;;;;;14.95;5.18;;;;;;;7.58;100.00;98695.59;5006601;28;20050;-71
2023/12/13 05:40:33;;;;;;;12.52;5.47;;;;;;;7.54;100.00;98692.31;5015192;28;20049;-70
2023/12/13 05:43:01;;;;;;;15.27;6.73;;;;;;;7.51;100.00;98696.94;5027703;28;20052;-71
2023/12/13 05:45:29;;;;;;;13.32;6.80;;;;;;;7.48;100.00;98697.13;5026695;28;20045;-70
2023/12/13 05:48:00;;;;;;;16.73;8.52;;;;;;;7.45;100.00;98695.50;5021555;28;20403;-70
2023/12/13 05:50:28;;;;;;;16.10;7.78;;;;;;;7.44;100.00;98695.59;5027569;28;20053;-71
2023/12/13 05:52:57;;;;;;;17.30;7.90;;;;;;;7.41;100.00;98694.00;5028681;28;20065;-69
2023/12/13 05:55:27;;;;;;;20.05;8.93;;;;;;;7.42;100.00;98693.06;5031439;28;20049;-70
2023/12/13 05:57:56;;;;;;;16.20;7.70;;;;;;;7.40;100.00;98698.41;5021274;28;20069;-70
2023/12/13 06:00:27;;;;;;;23.83;9.38;;;;;;;7.36;100.00;98696.09;5029801;28;20124;-72
2023/12/13 06:02:55;;;;;;;18.80;9.20;;;;;;;7.39;100.00;98704.66;5010686;28;20661;-71
2023/12/13 06:05:26;;;;;;;19.05;8.30;;;;;;;7.42;100.00;98694.84;5029091;28;20076;-71
2023/12/13 06:07:54;;;;;;;19.33;7.95;;;;;;;7.48;100.00;98702.38;5023578;28;20053;-71
2023/12/13 06:10:25;;;;;;;17.33;7.00;;;;;;;7.49;100.00;98690.91;5034223;28;20072;-69
2023/12/13 06:12:57;;;;;;;16.05;7.13;;;;;;;7.48;100.00;98694.47;5032658;28;20091;-71
2023/12/13 06:15:25;;;;;;;11.20;6.32;;;;;;;7.46;100.00;98693.72;5029765;28;20127;-69
2023/12/13 06:17:56;;;;;;;12.35;5.93;;;;;;;7.42;100.00;98689.56;5021959;28;20502;-70
2023/12/13 06:20:27;;;;;;;17.83;6.68;;;;;;;7.38;100.00;98692.41;5031504;28;20120;-70
2023/12/13 06:22:55;;;;;;;17.25;6.57;;;;;;;7.30;100.00;98696.44;5017859;28;20513;-68
2023/12/13 06:25:25;;;;;;;9.93;6.07;;;;;;;7.22;100.00;98686.38;5034790;28;20235;-69
2023/12/13 06:27:55;;;;;;;14.57;6.63;;;;;;;7.16;100.00;98688.53;5023530;28;20495;-70
2023/12/13 06:30:23;;;;;;;15.25;6.50;;;;;;;7.10;100.00;98688.88;5028991;28;20557;-70
2023/12/13 06:32:53;;;;;;;16.33;6.18;;;;;;;7.11;100.00;98691.44;5027008;28;20159;-69
2023/12/13 06:35:21;;;;;;;10.80;5.93;;;;;;;7.11;100.00;98694.06;5039912;28;20219;-67
2023/12/13 06:37:50;;;;;;;17.42;6.18;;;;;;;7.18;100.00;98692.78;5004671;28;20049;-69
2023/12/13 06:40:19;;;;;;;15.37;6.70;;;;;;;7.22;100.00;98690.81;5024003;28;20440;-69
2023/12/13 06:42:48;;;;;;;13.45;6.55;;;;;;;7.26;100.00;98684.41;5033226;28;20077;-69
2023/12/13 06:45:17;;;;;;;13.00;5.80;;;;;;;7.23;100.00;98680.19;5028767;28;20052;-70
2023/12/13 06:47:48;;;;;;;18.38;6.60;;;;;;;7.27;100.00;98689.56;5019561;28;20045;-68
2023/12/13 06:50:19;;;;;;;15.07;6.70;;;;;;;7.29;100.00;98692.97;5010378;28;20308;-68
2023/12/13 06:52:51;;;;;;;16.63;6.43;;;;;;;7.31;100.00;98682.34;5029573;28;20049;-68
2023/12/13 06:55:21;;;;;;;15.93;7.28;;;;;;;7.32;100.00;98687.50;5025396;28;20056;-68
2023/12/13 06:57:50;;;;;;;15.45;6.70;;;;;;;7.33;100.00;98681.31;5025500;28;20864;-67
2023/12/13 07:00:21;;;;;;;;;;;;;;;7.39;100.00;98680.09;5023592;28;20101;-68
2023/12/13 07:02:50;;;;;;;14.30;6.85;;;;;;;7.44;100.00;98680.66;5024060;28;20010;-69
2023/12/13 07:05:18;;;;;;;17.65;8.88;;;;;;;7.47;100.00;98676.97;5021960;28;20139;-70
2023/12/13 07:07:49;;;;;;;17.80;9.18;;;;;;;7.45;100.00;98671.81;5017414;28;20059;-67
2023/12/13 07:10:19;;;;;;;19.75;9.25;;;;;;;7.42;100.00;98679.03;5021927;28;20119;-67
2023/12/13 07:12:48;;;;;;;21.67;10.07;;;;;;;7.39;100.00;98672.19;5025680;28;20572;-69
2023/12/13 07:15:16;;;;;;;21.65;9.98;;;;;;;7.36;100.00;98665.34;5025610;28;20403;-69
2023/12/13 07:17:46;;;;;;;20.77;10.18;;;;;;;7.36;100.00;98667.13;5003119;28;20061;-69
2023/12/13 07:20:17;;;;;;;19.33;10.30;;;;;;;7.39;100.00;98675.69;5025053;28;20050;-69
2023/12/13 07:22:50;;;;;;;22.58;10.40;;;;;;;7.46;100.00;98667.38;5032773;28;20049;-68
2023/12/13 07:25:19;;;;;;;23.48;10.70;;;;;;;7.49;100.00;98670.69;5015395;28;20065;-69
2023/12/13 07:27:49;;;;;;;17.75;9.80;;;;;;;7.54;100.00;98673.88;5027691;28;20048;-67
2023/12/13 07:30:17;;;;;;;20.25;10.40;;;;;;;7.50;100.00;98661.00;5030243;28;20049;-71
2023/12/13 07:32:49;;;;;;;21.20;10.52;;;;;;;7.55;100.00;98665.03;5031560;28;20119;-69
2023/12/13 07:35:18;;;;;;;18.15;10.68;;;;;;;7.55;100.00;98667.69;5032810;28;20064;-68
2023/12/13 07:37:49;;;;;;;16.98;9.27;;;;;;;7.55;100.00;98664.19;5031329;28;20266;-66
2023/12/13 07:40:18;;;;;;;19.85;9.68;;;;;;;7.49;100.00;98660.16;5034050;28;20044;-67
2023/12/13 07:42:49;;;;;;;23.10;10.75;;;;;;;7.50;100.00;98664.47;5033289;28;20047;-68
2023/12/13 07:45:18;;;;;;;18.33;9.98;;;;;;;7.45;100.00;98658.63;5029675;28;20099;-69
2023/12/13 07:47:47;;;;;;;19.88;9.88;;;;;;;7.53;100.00;98666.09;5011621;28;20057;-67
2023/12/13 07:50:38;;;;;;;15.82;9.73;;;;;;;7.53;100.00;98660.81;5031065;28;20048;-67
2023/12/13 07:53:11;;;;;;;16.70;9.27;;;;;;;7.53;100.00;98655.53;5031924;28;20042;-67
2023/12/13 07:55:40;;;;;;;15.68;9.13;;;;;;;7.55;100.00;98657.16;5036438;28;20111;-67
2023/12/13 07:58:09;;;;;;;17.73;9.32;;;;;;;7.57;100.00;98662.28;5024004;28;20050;-67
2023/12/13 08:00:37;;;;;;;19.08;8.80;;;;;;;7.60;100.00;98659.47;5021854;28;20045;-67
2023/12/13 08:03:05;;;;;;;16.73;8.20;;;;;;;7.66;100.00;98661.72;5054117;28;20048;-70
2023/12/13 08:05:43;;;;;;;11.80;7.55;;;;;;;7.72;100.00;98666.59;5034478;28;20103;-70
2023/12/13 08:08:14;;;;;;;15.70;7.95;;;;;;;7.80;100.00;98663.50;5032619;28;20045;-66
2023/12/13 08:10:46;;;;;;;15.93;8.23;;;;;;;7.84;100.00;98665.84;5036693;28;20080;-67
2023/12/13 08:13:19;;;;;;;20.70;7.95;;;;;;;7.74;100.00;98647.13;5038549;28;20045;-69
2023/12/13 08:15:48;;;;;;;19.85;7.93;;;;;;;7.82;100.00;98670.38;5033706;28;20061;-69
2023/12/13 08:18:21;;;;;;;16.55;7.72;;;;;;;7.79;100.00;98669.72;5031363;28;20049;-69
2023/12/13 08:20:51;;;;;;;20.00;8.27;;;;;;;7.75;100.00;98671.69;5027930;28;20040;-69
2023/12/13 08:23:19;;;;;;;18.80;8.07;;;;;;;7.73;100.00;98660.38;5014924;28;20077;-70
2023/12/13 08:25:55;;;;;;;17.20;7.88;;;;;;;7.73;100.00;98668.28;5024630;28;20052;-68
2023/12/13 08:28:24;;;;;;;19.17;8.20;;;;;;;7.71;100.00;98659.66;5019221;28;20421;-69
2023/12/13 08:30:56;;;;;;;16.10;7.63;;;;;;;7.73;100.00;98663.88;5029910;28;20075;-70
2023/12/13 08:33:45;;;;;;;16.50;7.68;;;;;;;7.82;100.00;98664.25;5029223;28;20041;-69
2023/12/13 08:36:15;;;;;;;15.18;8.75;;;;;;;7.85;100.00;98670.19;5029835;28;20049;-67
2023/12/13 08:38:45;;;;;;;18.20;8.00;;;;;;;7.90;100.00;98675.97;5034799;28;20053;-67
2023/12/13 08:41:16;;;;;;;18.92;8.65;;;;;;;7.89;100.00;98674.28;5050373;28;20076;-69
2023/12/13 08:43:44;;;;;;;;;;;;;;;7.90;100.00;98675.13;5027667;28;20100;-70
2023/12/13 08:46:21;;;;;;;20.90;8.90;;;;;;;7.92;100.00;98678.53;5017063;28;19997;-70
2023/12/13 08:48:50;;;;;;;18.60;9.55;;;;;;;7.97;100.00;98681.72;5034533;28;20048;-69
2023/12/13 08:51:22;;;;;;;19.20;9.18;;;;;;;7.95;100.00;98668.66;5030094;28;20530;-69
2023/12/13 08:53:55;;;;;;;21.73;11.70;;;;;;;7.96;100.00;98672.97;5027014;28;20394;-69
2023/12/13 08:56:24;;;;;;;23.80;12.10;;;;;;;7.92;100.00;98676.75;5029523;28;20049;-70
2023/12/13 08:58:52;;;;;;;20.77;11.02;;;;;;;7.98;100.00;98683.41;5001168;28;20054;-70
2023/12/13 09:01:22;;;;;;;23.13;12.05;;;;;;;8.02;100.00;98677.88;5031411;28;20079;-69
2023/12/13 09:03:55;;;;;;;21.25;12.40;;;;;;;8.02;100.00;98662.06;5023598;28;20049;-70
2023/12/13 09:06:24;;;;;;;21.88;13.10;;;;;;;8.12;100.00;98679.91;5029227;28;20043;-71
2023/12/13 09:08:56;;;;;;;23.58;12.95;;;;;;;8.07;100.00;98675.75;5034289;28;20050;-69
2023/12/13 09:11:31;;;;;;;22.02;12.80;;;;;;;8.04;100.00;98683.00;5033200;28;20076;-70
2023/12/13 09:13:59;;;;;;;22.33;14.00;;;;;;;8.04;100.00;98669.84;5048390;28;20065;-71
2023/12/13 09:16:31;;;;;;;26.38;14.00;;;;;;;8.06;100.00;98675.84;5033534;28;20048;-71
2023/12/13 09:19:00;;;;;;;23.20;14.32;;;;;;;8.09;100.00;98678.31;5026694;28;20046;-73
2023/12/13 09:21:28;;;;;;;21.17;13.88;;;;;;;8.11;100.00;98671.16;5024308;28;20066;-72
2023/12/13 09:23:55;;;;;;;23.70;14.95;;;;;;;8.13;100.00;98671.91;5039015;28;20064;-72
2023/12/13 09:26:24;;;;;;;21.38;13.88;;;;;;;8.18;100.00;98679.53;5038710;28;20068;-70
2023/12/13 09:28:59;;;;;;;23.90;15.63;;;;;;;8.18;100.00;98680.38;5030852;28;20042;-71
2023/12/13 09:31:28;;;;;;;26.90;15.07;;;;;;;8.20;100.00;98675.81;5034641;28;20058;-72
2023/12/13 09:33:58;;;;;;;26.02;14.98;;;;;;;8.25;100.00;98673.75;5020896;28;20050;-71
2023/12/13 09:36:28;;;;;;;17.93;11.20;;;;;;;8.28;100.00;98676.19;5027438;28;20528;-71
2023/12/13 09:38:58;;;;;;;25.23;15.23;;;;;;;8.26;100.00;98675.44;5025458;28;20041;-71
2023/12/13 09:41:37;;;;;;;27.83;15.80;;;;;;;8.37;100.00;98680.03;5038618;28;20568;-68
2023/12/13 09:44:10;;;;;;;;;;;;;;;8.45;100.00;98677.75;5037604;28;20041;-68
2023/12/13 09:46:53;;;;;;;25.15;15.10;;;;;;;8.46;100.00;98675.97;5040615;28;19932;-70
2023/12/13 09:49:22;;;;;;;26.65;15.70;;;;;;;8.42;100.00;98665.59;5025788;28;20047;-70
2023/12/13 09:52:08;;;;;;;22.30;13.50;;;;;;;8.44;100.00;98679.53;5047828;28;20048;-69
2023/12/13 09:54:37;;;;;;;25.40;14.18;;;;;;;8.49;100.00;98681.88;5029558;28;20500;-71
2023/12/13 09:57:11;;;;;;;24.30;14.33;;;;;;;8.61;100.00;98677.59;5032173;28;20042;-72
2023/12/13 09:59:41;;;;;;;24.80;15.57;;;;;;;8.72;100.00;98675.91;5030120;28;20557;-74
2023/12/13 10:02:14;;;;;;;24.60;15.57;;;;;;;8.87;100.00;98681.97;5033336;28;20079;-74
2023/12/13 10:04:45;;;;;;;22.10;14.77;;;;;;;8.96;100.00;98686.66;5036765;28;20057;-75
2023/12/13 10:07:14;;;;;;;17.23;12.30;;;;;;;8.98;100.00;98687.34;5030424;28;20050;-75
2023/12/13 10:09:44;;;;;;;16.47;12.27;;;;;;;8.99;100.00;98678.50;5023595;28;20053;-75
2023/12/13 10:12:13;;;;;;;18.10;12.13;;;;;;;9.06;100.00;98671.00;5036785;28;20510;-74
2023/12/13 10:14:49;;;;;;;20.45;12.50;;;;;;;9.21;100.00;98685.81;5031285;28;20065;-74
2023/12/13 10:17:21;;;;;;;18.58;11.77;;;;;;;9.30;100.00;98677.25;5033539;28;20050;-74
2023/12/13 10:19:49;;;;;;;20.25;11.85;;;;;;;9.31;100.00;98689.50;5007995;28;20053;-75
2023/12/13 10:22:29;;;;;;;12.40;8.25;;;;;;;9.13;100.00;98678.41;5012256;28;20061;-72
2023/12/13 10:24:58;;;;;;;16.30;8.50;;;;;;;9.02;100.00;98680.94;5045969;28;20046;-74
2023/12/13 10:27:27;;;;;;;16.77;8.27;;;;;;;8.93;100.00;98673.66;5002679;28;20171;-74
2023/12/13 10:29:56;;;;;;;14.35;7.70;;;;;;;8.84;100.00;98678.69;5026114;28;20042;-77
2023/12/13 10:32:25;;;;;;;18.10;8.68;;;;;;;8.78;100.00;98679.97;5027760;28;20063;-72
2023/12/13 10:34:53;;;;;;;17.33;8.07;;;;;;;8.80;100.00;98672.78;5028638;28;20048;-75
2023/12/13 10:37:26;;;;;;;12.55;7.25;;;;;;;8.93;100.00;98678.06;5027850;28;20095;-73
2023/12/13 10:39:58;;;;;;;12.23;8.52;;;;;;;9.05;100.00;98664.88;5001232;28;20053;-73
2023/12/13 10:42:26;;;;;;;11.70;8.00;;;;;;;9.22;100.00;98679.56;5028300;28;20123;-73
2023/12/13 10:44:57;;;;;;;12.05;9.35;;;;;;;9.30;100.00;98661.38;5032639;28;20053;-72
2023/12/13 10:47:26;;;;;;;10.90;8.05;;;;;;;9.50;100.00;98671.44;5043694;28;20053;-72
2023/12/13 10:49:57;;;;;;;12.63;7.28;;;;;;;9.43;100.00;98656.97;5018373;28;20053;-73
2023/12/13 10:52:28;;;;;;;11.77;7.80;;;;;;;9.64;100.00;98677.53;5030516;28;20053;-73
2023/12/13 10:54:57;;;;;;;8.90;6.75;;;;;;;9.74;100.00;98668.03;5029005;28;20147;-73
2023/12/13 10:57:29;;;;;;;9.45;4.93;;;;;;;9.63;100.00;98662.63;5001291;28;20053;-72
2023/12/13 10:59:59;;;;;;;6.20;5.05;;;;;;;9.73;100.00;98666.34;5007494;28;20116;-74
2023/12/13 11:02:46;;;;;;;10.30;6.30;;;;;;;9.84;100.00;98661.97;5024124;28;20387;-73
2023/12/13 11:05:14;;;;;;;6.93;4.50;;;;;;;9.87;100.00;98660.06;5028001;28;20123;-73
2023/12/13 11:07:44;;;;;;;7.00;5.13;;;;;;;9.75;100.00;98661.78;5024060;28;20042;-73
2023/12/13 11:10:14;;;;;;;6.80;4.68;;;;;;;9.68;100.00;98652.59;5018237;28;20495;-73
2023/12/13 11:12:49;;;;;;;10.32;5.38;;;;;;;9.72;100.00;98667.28;5021103;28;20060;-72
2023/12/13 11:15:20;;;;;;;11.35;5.18;;;;;;;9.80;100.00;98664.94;5021756;28;20045;-71
2023/12/13 11:17:54;;;;;;;8.18;3.10;;;;;;;9.75;100.00;98669.72;5026217;28;20049;-69
2023/12/13 11:20:24;;;;;;;4.80;2.55;;;;;;;9.64;100.00;98659.88;5022093;28;20045;-73
2023/12/13 11:22:57;;;;;;;7.32;2.88;;;;;;;9.55;100.00;98662.34;4994446;28;20044;-73
2023/12/13 11:25:35;;;;;;;5.68;3.08;;;;;;;9.63;100.00;98652.06;5012948;28;20062;-72
2023/12/13 11:28:03;;;;;;;8.95;2.90;;;;;;;9.71;100.00;98676.16;5024924;28;20072;-73
2023/12/13 11:30:41;;;;;;;6.85;2.97;;;;;;;9.60;100.00;98676.91;5021705;28;20152;-73
2023/12/13 11:33:15;;;;;;;10.50;3.72;;;;;;;9.55;100.00;98670.28;5028765;28;20041;-73
2023/12/13 11:35:49;;;;;;;6.53;2.72;;;;;;;9.51;100.00;98680.19;5030062;28;20057;-72
2023/12/13 11:38:19;;;;;;;10.60;2.92;;;;;;;9.55;100.00;98681.69;5047796;28;20435;-73